createdAt,value
2018-05-29T00:00:47.480Z,48.34
2018-05-29T00:03:13.708Z,48.29
2018-05-29T00:05:39.978Z,48.40
2018-05-29T00:08:06.220Z,48.28
2018-05-29T00:10:32.438Z,48.38
2018-05-29T00:12:58.718Z,48.32
2018-05-29T00:15:24.939Z,48.32
2018-05-29T00:17:51.166Z,48.39
2018-05-29T00:20:17.445Z,48.38
2018-05-29T00:22:43.663Z,48.36
2018-05-29T00:25:09.890Z,48.34
2018-05-29T00:27:36.170Z,48.41
2018-05-29T00:30:02.390Z,48.40
2018-05-29T00:32:28.625Z,48.59
2018-05-29T00:34:54.886Z,48.50
2018-05-29T00:37:21.121Z,48.42
2018-05-29T00:39:47.347Z,48.31
2018-05-29T00:42:13.611Z,48.32
2018-05-29T00:44:39.836Z,48.36
2018-05-29T00:47:06.105Z,48.39
2018-05-29T00:49:32.365Z,48.36
2018-05-29T00:51:58.583Z,48.39
2018-05-29T00:54:24.851Z,48.39
2018-05-29T00:56:51.114Z,48.48
2018-05-29T00:59:17.347Z,48.35
2018-05-29T01:01:43.591Z,48.42
2018-05-29T01:04:09.871Z,48.39
2018-05-29T01:06:36.124Z,48.47
2018-05-29T01:09:02.434Z,48.44
2018-05-29T01:11:28.722Z,48.52
2018-05-29T01:13:54.939Z,48.40
2018-05-29T01:16:21.173Z,48.35
2018-05-29T01:18:47.437Z,48.27
2018-05-29T01:21:13.692Z,48.23
2018-05-29T01:23:39.915Z,48.36
2018-05-29T01:26:06.166Z,48.42
2018-05-29T01:28:32.409Z,48.52
2018-05-29T01:30:58.647Z,48.72
2018-05-29T01:33:24.911Z,48.95
2018-05-29T01:35:51.150Z,49.08
2018-05-29T01:38:17.390Z,49.17
2018-05-29T01:40:43.662Z,49.31
2018-05-29T01:43:09.899Z,49.37
2018-05-29T01:45:36.135Z,49.34
2018-05-29T01:48:02.382Z,49.36
2018-05-29T01:50:28.623Z,49.37
2018-05-29T01:52:54.902Z,49.26
2018-05-29T01:55:21.173Z,49.34
2018-05-29T01:57:47.386Z,49.12
2018-05-29T02:00:13.657Z,49.11
2018-05-29T02:02:39.887Z,49.04
2018-05-29T02:05:06.138Z,49.06
2018-05-29T02:07:32.415Z,48.91
2018-05-29T02:09:58.658Z,48.80
2018-05-29T02:12:24.890Z,48.78
2018-05-29T02:14:51.166Z,48.54
2018-05-29T02:17:17.396Z,48.76
2018-05-29T02:19:43.625Z,48.53
2018-05-29T02:22:09.862Z,48.52
2018-05-29T02:24:36.126Z,48.59
2018-05-29T02:27:02.387Z,48.61
2018-05-29T02:29:28.634Z,48.46
2018-05-29T02:31:54.872Z,48.30
2018-05-29T02:34:21.134Z,48.24
2018-05-29T02:36:47.379Z,48.15
2018-05-29T02:39:13.635Z,47.94
2018-05-29T02:41:39.866Z,47.86
2018-05-29T02:44:06.117Z,47.77
2018-05-29T02:46:32.370Z,47.49
2018-05-29T02:48:58.594Z,47.40
2018-05-29T02:51:24.874Z,47.34
2018-05-29T02:53:51.114Z,47.40
2018-05-29T02:56:17.343Z,47.11
2018-05-29T02:58:43.585Z,46.80
2018-05-29T03:01:09.825Z,46.88
2018-05-29T03:03:36.090Z,47.13
2018-05-29T03:06:02.331Z,46.78
2018-05-29T03:08:28.600Z,46.92
2018-05-29T03:10:54.886Z,46.69
2018-05-29T03:13:21.118Z,46.68
2018-05-29T03:15:47.366Z,46.41
2018-05-29T03:18:13.594Z,46.33
2018-05-29T03:20:39.882Z,46.29
2018-05-29T03:23:06.184Z,46.25
2018-05-29T03:25:32.410Z,46.01
2018-05-29T03:27:58.706Z,45.92
2018-05-29T03:30:24.934Z,46.14
2018-05-29T03:32:51.176Z,45.83
2018-05-29T03:35:17.455Z,45.83
2018-05-29T03:37:43.690Z,45.81
2018-05-29T03:40:09.961Z,45.73
2018-05-29T03:42:36.210Z,45.52
2018-05-29T03:45:02.475Z,45.68
2018-05-29T03:47:28.734Z,45.70
2018-05-29T03:49:54.982Z,45.73
2018-05-29T03:52:21.238Z,45.75
2018-05-29T03:54:47.466Z,45.83
2018-05-29T03:57:13.762Z,45.98
2018-05-29T03:59:40.021Z,46.01
2018-05-29T04:02:06.262Z,45.97
2018-05-29T04:04:32.523Z,45.99
2018-05-29T04:06:58.760Z,46.23
2018-05-29T04:09:25.038Z,46.34
2018-05-29T04:11:52.399Z,46.42
2018-05-29T04:14:18.647Z,46.35
2018-05-29T04:16:44.908Z,46.48
2018-05-29T04:19:11.145Z,46.43
2018-05-29T04:21:37.374Z,46.40
2018-05-29T04:24:03.614Z,46.29
2018-05-29T04:26:29.847Z,46.38
2018-05-29T04:28:56.126Z,46.42
2018-05-29T04:31:22.355Z,46.74
2018-05-29T04:33:48.583Z,46.77
2018-05-29T04:36:14.827Z,47.00
2018-05-29T04:38:41.086Z,46.81
2018-05-29T04:41:07.399Z,46.75
2018-05-29T04:43:33.626Z,47.17
2018-05-29T04:45:59.874Z,47.46
2018-05-29T04:48:26.126Z,47.52
2018-05-29T04:50:52.386Z,47.42
2018-05-29T04:53:18.650Z,47.70
2018-05-29T04:55:44.867Z,47.81
2018-05-29T04:58:11.111Z,47.98
2018-05-29T05:00:37.371Z,48.06
2018-05-29T05:03:03.641Z,48.25
2018-05-29T05:05:29.898Z,48.41
2018-05-29T05:07:56.138Z,48.40
2018-05-29T05:10:22.366Z,48.79
2018-05-29T05:12:48.613Z,48.99
2018-05-29T05:15:14.849Z,49.10
2018-05-29T05:17:41.119Z,49.03
2018-05-29T05:20:07.420Z,49.00
2018-05-29T05:22:33.639Z,49.04
2018-05-29T05:24:59.890Z,48.86
2018-05-29T05:27:26.138Z,48.78
2018-05-29T05:29:52.421Z,48.71
2018-05-29T05:32:18.646Z,48.86
2018-05-29T05:34:44.881Z,48.83
2018-05-29T05:37:11.127Z,48.76
2018-05-29T05:39:37.434Z,48.75
2018-05-29T05:42:03.732Z,48.48
2018-05-29T05:44:29.979Z,48.46
2018-05-29T05:46:56.210Z,48.24
2018-05-29T05:49:22.454Z,48.36
2018-05-29T05:51:48.673Z,48.17
2018-05-29T05:54:14.932Z,47.82
2018-05-29T05:56:41.150Z,47.79
2018-05-29T05:59:07.366Z,47.85
2018-05-29T06:01:33.611Z,47.73
2018-05-29T06:03:59.831Z,47.68
2018-05-29T06:06:26.046Z,47.29
2018-05-29T06:08:52.294Z,47.61
2018-05-29T06:11:18.527Z,47.54
2018-05-29T06:13:44.794Z,47.48
2018-05-29T06:16:11.051Z,48.01
2018-05-29T06:18:37.286Z,46.89
2018-05-29T06:21:03.525Z,46.31
2018-05-29T06:23:29.774Z,46.14
2018-05-29T06:25:55.999Z,45.79
2018-05-29T06:28:22.250Z,45.51
2018-05-29T06:30:48.475Z,45.22
2018-05-29T06:33:14.703Z,44.99
2018-05-29T06:35:40.950Z,44.71
2018-05-29T06:38:07.213Z,44.47
2018-05-29T06:40:33.441Z,44.36
2018-05-29T06:42:59.666Z,44.28
2018-05-29T06:45:25.911Z,43.95
2018-05-29T06:47:52.158Z,44.03
2018-05-29T06:50:18.391Z,43.49
2018-05-29T06:52:44.646Z,43.22
2018-05-29T06:55:10.862Z,43.77
2018-05-29T06:57:37.079Z,43.25
2018-05-29T07:00:03.378Z,43.69
2018-05-29T07:02:29.598Z,43.63
2018-05-29T07:04:55.848Z,42.65
2018-05-29T07:07:22.091Z,42.44
2018-05-29T07:09:48.305Z,42.74
2018-05-29T07:12:14.574Z,41.72
2018-05-29T07:14:40.798Z,42.07
2018-05-29T07:17:07.054Z,41.75
2018-05-29T07:19:33.282Z,41.02
2018-05-29T07:21:59.508Z,42.57
2018-05-29T07:24:25.762Z,41.44
2018-05-29T07:26:51.986Z,41.41
2018-05-29T07:29:18.290Z,41.39
2018-05-29T07:31:44.514Z,41.09
2018-05-29T07:34:10.754Z,41.06
2018-05-29T07:36:37.005Z,40.01
2018-05-29T07:39:03.283Z,39.90
2018-05-29T07:41:29.558Z,40.57
2018-05-29T07:43:55.807Z,39.62
2018-05-29T07:46:22.054Z,39.18
2018-05-29T07:48:48.303Z,39.01
2018-05-29T07:51:14.538Z,38.97
2018-05-29T07:53:40.820Z,38.70
2018-05-29T07:56:07.075Z,38.96
2018-05-29T07:58:33.313Z,38.96
2018-05-29T08:00:59.588Z,37.97
2018-05-29T08:03:25.823Z,38.90
2018-05-29T08:05:52.076Z,37.65
2018-05-29T08:08:18.307Z,36.94
2018-05-29T08:10:44.607Z,37.24
2018-05-29T08:13:10.875Z,37.06
2018-05-29T08:15:37.131Z,35.91
2018-05-29T08:18:03.422Z,37.27
2018-05-29T08:20:29.651Z,36.15
2018-05-29T08:22:55.876Z,35.74
2018-05-29T08:25:22.135Z,35.80
2018-05-29T08:27:48.366Z,35.27
2018-05-29T08:30:14.629Z,35.20
2018-05-29T08:32:40.870Z,35.20
2018-05-29T08:35:07.107Z,34.14
2018-05-29T08:37:33.380Z,34.11
2018-05-29T08:39:59.607Z,33.93
2018-05-29T08:42:25.898Z,32.74
2018-05-29T08:44:52.132Z,32.29
2018-05-29T08:47:18.370Z,31.91
2018-05-29T08:49:44.627Z,32.00
2018-05-29T08:52:10.859Z,30.82
2018-05-29T08:54:37.122Z,30.46
2018-05-29T08:57:03.391Z,30.35
2018-05-29T08:59:29.615Z,30.27
2018-05-29T09:01:55.871Z,29.60
2018-05-29T09:04:22.168Z,29.68
2018-05-29T09:06:48.414Z,29.65
2018-05-29T09:09:14.679Z,30.14
2018-05-29T09:11:40.919Z,29.14
2018-05-29T09:14:07.159Z,28.98
2018-05-29T09:16:33.403Z,28.67
2018-05-29T09:18:59.699Z,28.75
2018-05-29T09:21:25.934Z,28.97
2018-05-29T09:23:52.155Z,28.46
2018-05-29T09:26:18.398Z,27.92
2018-05-29T09:28:44.629Z,27.87
2018-05-29T09:31:10.886Z,28.69
2018-05-29T09:33:37.110Z,27.14
2018-05-29T09:36:03.404Z,27.18
2018-05-29T09:38:29.652Z,27.08
2018-05-29T09:40:55.874Z,26.38
2018-05-29T09:43:22.170Z,26.09
2018-05-29T09:45:48.439Z,25.99
2018-05-29T09:48:14.684Z,26.64
2018-05-29T09:50:40.954Z,26.73
2018-05-29T09:53:07.182Z,26.00
2018-05-29T09:55:33.434Z,25.22
2018-05-29T09:57:59.657Z,24.99
2018-05-29T10:00:31.895Z,24.97
2018-05-29T10:02:58.138Z,25.64
2018-05-29T10:05:24.370Z,24.63
2018-05-29T10:07:50.606Z,24.46
2018-05-29T10:10:16.891Z,24.41
2018-05-29T10:12:43.115Z,25.21
2018-05-29T10:15:09.354Z,25.05
2018-05-29T10:17:35.599Z,24.91
2018-05-29T10:20:01.831Z,23.94
2018-05-29T10:22:28.067Z,23.88
2018-05-29T10:24:54.354Z,23.58
2018-05-29T10:27:20.570Z,23.19
2018-05-29T10:29:46.790Z,22.66
2018-05-29T10:32:13.060Z,22.91
2018-05-29T10:34:39.283Z,22.53
2018-05-29T10:37:05.534Z,22.95
2018-05-29T10:39:31.759Z,23.64
2018-05-29T10:41:57.994Z,23.49
2018-05-29T10:44:24.247Z,21.80
2018-05-29T10:46:50.460Z,22.56
2018-05-29T10:49:16.710Z,21.29
2018-05-29T10:51:42.939Z,21.65
2018-05-29T10:54:09.167Z,21.45
2018-05-29T10:56:35.426Z,21.16
2018-05-29T10:59:01.682Z,21.05
2018-05-29T11:01:27.946Z,21.60
2018-05-29T11:03:54.166Z,20.83
2018-05-29T11:06:20.458Z,20.44
2018-05-29T11:08:46.705Z,20.46
2018-05-29T11:11:12.972Z,20.60
2018-05-29T11:13:39.219Z,20.22
2018-05-29T11:16:05.456Z,20.75
2018-05-29T11:18:31.701Z,20.57
2018-05-29T11:20:57.962Z,19.84
2018-05-29T11:23:24.182Z,19.67
2018-05-29T11:25:50.449Z,18.92
2018-05-29T11:28:16.690Z,18.97
2018-05-29T11:30:42.907Z,18.54
2018-05-29T11:33:09.178Z,18.77
2018-05-29T11:35:35.398Z,18.71
2018-05-29T11:38:01.694Z,18.12
2018-05-29T11:40:27.927Z,18.34
2018-05-29T11:42:54.154Z,18.50
2018-05-29T11:45:20.414Z,18.65
2018-05-29T11:47:46.634Z,19.11
2018-05-29T11:50:12.923Z,18.53
2018-05-29T11:52:39.159Z,17.62
2018-05-29T11:55:05.447Z,17.31
2018-05-29T11:57:31.698Z,17.88
2018-05-29T11:59:57.927Z,17.83
2018-05-29T12:02:24.256Z,17.93
2018-05-29T12:04:57.474Z,18.03
2018-05-29T12:07:23.802Z,17.67
2018-05-29T12:09:50.034Z,17.57
2018-05-29T12:12:24.295Z,17.69
2018-05-29T12:14:50.551Z,17.80
2018-05-29T12:17:16.798Z,17.46
2018-05-29T12:19:43.058Z,17.42
2018-05-29T12:22:09.294Z,16.76
2018-05-29T12:24:35.563Z,16.84
2018-05-29T12:27:01.818Z,16.98
2018-05-29T12:29:28.063Z,16.96
2018-05-29T12:31:54.323Z,16.96
2018-05-29T12:34:20.555Z,17.20
2018-05-29T12:36:46.834Z,16.99
2018-05-29T12:39:13.085Z,16.77
2018-05-29T12:41:39.329Z,17.48
2018-05-29T12:44:05.583Z,17.41
2018-05-29T12:46:31.815Z,16.68
2018-05-29T12:48:58.074Z,16.77
2018-05-29T12:51:24.338Z,16.82
2018-05-29T12:53:50.582Z,16.31
2018-05-29T12:56:16.838Z,16.40
2018-05-29T12:58:43.114Z,16.87
2018-05-29T13:01:09.401Z,17.27
2018-05-29T13:03:35.630Z,16.78
2018-05-29T13:06:01.855Z,16.78
2018-05-29T13:08:28.123Z,16.76
2018-05-29T13:10:54.351Z,16.57
2018-05-29T13:13:20.643Z,16.27
2018-05-29T13:15:46.874Z,16.03
2018-05-29T13:18:13.103Z,15.99
2018-05-29T13:20:39.358Z,16.25
2018-05-29T13:23:05.595Z,16.22
2018-05-29T13:25:31.856Z,17.31
2018-05-29T13:27:58.157Z,17.57
2018-05-29T13:30:24.370Z,17.72
2018-05-29T13:32:50.627Z,17.33
2018-05-29T13:35:16.882Z,16.89
2018-05-29T13:37:43.145Z,16.92
2018-05-29T13:40:09.375Z,16.52
2018-05-29T13:42:35.607Z,17.29
2018-05-29T13:45:01.885Z,17.26
2018-05-29T13:47:28.136Z,18.02
2018-05-29T13:49:54.394Z,20.17
2018-05-29T13:52:20.622Z,21.56
2018-05-29T13:54:46.865Z,22.38
2018-05-29T13:57:13.135Z,20.96
2018-05-29T13:59:39.367Z,19.49
2018-05-29T14:02:05.670Z,18.36
2018-05-29T14:04:31.903Z,18.68
2018-05-29T14:06:58.129Z,18.36
2018-05-29T14:09:24.379Z,18.11
2018-05-29T14:11:50.602Z,18.09
2018-05-29T14:14:16.887Z,17.51
2018-05-29T14:16:43.161Z,17.38
2018-05-29T14:19:09.405Z,17.86
2018-05-29T14:21:35.670Z,18.22
2018-05-29T14:24:01.887Z,20.42
2018-05-29T14:26:28.145Z,22.06
2018-05-29T14:28:54.371Z,23.39
2018-05-29T14:31:20.586Z,23.99
2018-05-29T14:33:46.831Z,24.94
2018-05-29T14:36:13.058Z,25.32
2018-05-29T14:38:39.303Z,25.98
2018-05-29T14:41:05.549Z,26.87
2018-05-29T14:43:31.781Z,27.67
2018-05-29T14:45:58.042Z,27.71
2018-05-29T14:48:24.262Z,27.56
2018-05-29T14:50:50.527Z,25.85
2018-05-29T14:53:16.808Z,24.63
2018-05-29T14:55:43.050Z,24.27
2018-05-29T14:58:09.269Z,25.76
2018-05-29T15:00:35.535Z,27.08
2018-05-29T15:03:01.767Z,27.81
2018-05-29T15:05:28.043Z,28.44
2018-05-29T15:07:54.254Z,28.92
2018-05-29T15:10:20.476Z,29.50
2018-05-29T15:12:46.731Z,29.37
2018-05-29T15:15:12.968Z,28.95
2018-05-29T15:17:39.223Z,28.73
2018-05-29T15:20:05.477Z,29.08
2018-05-29T15:22:31.722Z,29.29
2018-05-29T15:24:58.006Z,28.68
2018-05-29T15:27:24.446Z,28.50
2018-05-29T15:29:50.709Z,29.24
2018-05-29T15:32:16.943Z,28.79
2018-05-29T15:34:43.199Z,28.60
2018-05-29T15:37:09.458Z,29.66
2018-05-29T15:39:35.683Z,30.20
2018-05-29T15:42:01.959Z,30.59
2018-05-29T15:44:28.202Z,31.09
2018-05-29T15:46:54.623Z,31.34
2018-05-29T15:49:20.878Z,31.47
2018-05-29T15:51:47.127Z,31.85
2018-05-29T15:54:13.395Z,32.05
2018-05-29T15:56:39.634Z,32.35
2018-05-29T15:59:05.895Z,32.41
2018-05-29T16:01:32.126Z,32.26
2018-05-29T16:03:58.395Z,32.54
2018-05-29T16:06:24.654Z,32.57
2018-05-29T16:08:50.893Z,32.34
2018-05-29T16:11:17.209Z,32.13
2018-05-29T16:13:43.654Z,32.48
2018-05-29T16:16:09.928Z,32.55
2018-05-29T16:18:36.177Z,32.79
2018-05-29T16:21:02.418Z,32.95
2018-05-29T16:23:28.691Z,32.79
2018-05-29T16:25:54.929Z,33.27
2018-05-29T16:28:21.174Z,33.60
2018-05-29T16:30:47.470Z,33.35
2018-05-29T16:33:13.702Z,33.49
2018-05-29T16:35:39.955Z,33.64
2018-05-29T16:38:06.202Z,33.93
2018-05-29T16:40:32.461Z,34.09
2018-05-29T16:42:58.723Z,34.15
2018-05-29T16:45:24.959Z,34.34
2018-05-29T16:47:51.231Z,34.41
2018-05-29T16:50:17.490Z,34.67
2018-05-29T16:52:43.710Z,34.84
2018-05-29T16:55:09.966Z,34.97
2018-05-29T16:57:36.218Z,35.00
2018-05-29T17:00:02.531Z,34.93
2018-05-29T17:02:28.754Z,34.89
2018-05-29T17:04:54.989Z,35.09
2018-05-29T17:07:21.233Z,35.25
2018-05-29T17:09:47.479Z,35.30
2018-05-29T17:12:13.723Z,35.37
2018-05-29T17:14:39.971Z,35.30
2018-05-29T17:17:06.259Z,35.29
2018-05-29T17:19:32.527Z,35.30
2018-05-29T17:21:58.754Z,35.33
2018-05-29T17:24:25.029Z,35.33
2018-05-29T17:26:51.274Z,35.42
2018-05-29T17:29:17.546Z,35.34
2018-05-29T17:31:43.795Z,35.55
2018-05-29T17:34:10.032Z,35.78
2018-05-29T17:36:36.294Z,35.88
2018-05-29T17:39:02.598Z,35.87
2018-05-29T17:41:28.882Z,36.04
2018-05-29T17:43:55.131Z,36.38
2018-05-29T17:46:21.393Z,36.42
2018-05-29T17:48:47.647Z,36.84
2018-05-29T17:51:13.886Z,36.91
2018-05-29T17:53:40.378Z,36.97
2018-05-29T17:56:06.615Z,37.31
2018-05-29T17:58:32.834Z,37.60
2018-05-29T18:00:59.107Z,37.82
2018-05-29T18:03:25.370Z,38.12
2018-05-29T18:05:51.620Z,38.43
2018-05-29T18:08:17.903Z,38.94
2018-05-29T18:10:44.134Z,39.33
2018-05-29T18:13:10.354Z,39.06
2018-05-29T18:15:36.606Z,38.78
2018-05-29T18:18:02.855Z,38.72
2018-05-29T18:20:29.147Z,38.85
2018-05-29T18:22:55.402Z,38.97
2018-05-29T18:25:21.641Z,39.03
2018-05-29T18:27:47.894Z,39.28
2018-05-29T18:30:14.142Z,39.45
2018-05-29T18:32:40.402Z,39.60
2018-05-29T18:35:06.663Z,39.73
2018-05-29T18:37:32.919Z,39.74
2018-05-29T18:39:59.172Z,39.86
2018-05-29T18:42:25.428Z,39.64
2018-05-29T18:44:51.699Z,39.65
2018-05-29T18:47:17.925Z,39.36
2018-05-29T18:49:44.167Z,39.70
2018-05-29T18:52:10.427Z,39.73
2018-05-29T18:54:36.667Z,39.54
2018-05-29T18:57:02.967Z,39.48
2018-05-29T18:59:29.198Z,39.57
2018-05-29T19:01:55.460Z,39.56
2018-05-29T19:04:21.728Z,40.19
2018-05-29T19:06:48.023Z,39.67
2018-05-29T19:09:14.306Z,39.72
2018-05-29T19:11:40.812Z,39.90
2018-05-29T19:14:07.182Z,39.85
2018-05-29T19:16:33.736Z,39.53
2018-05-29T19:19:00.048Z,39.80
2018-05-29T19:21:26.371Z,39.78
2018-05-29T19:23:52.609Z,39.40
2018-05-29T19:26:18.838Z,38.96
2018-05-29T19:28:45.322Z,38.98
2018-05-29T19:31:11.731Z,38.85
2018-05-29T19:33:37.998Z,38.69
2018-05-29T19:36:04.283Z,38.95
2018-05-29T19:38:30.929Z,38.61
2018-05-29T19:40:57.242Z,38.91
2018-05-29T19:43:23.738Z,39.16
2018-05-29T19:45:50.308Z,39.37
2018-05-29T19:48:16.642Z,39.51
2018-05-29T19:50:43.091Z,39.63
2018-05-29T19:53:09.379Z,39.84
2018-05-29T19:55:35.916Z,40.13
2018-05-29T19:58:02.535Z,40.12
2018-05-29T20:00:28.927Z,40.47
2018-05-29T20:02:55.279Z,40.55
2018-05-29T20:05:21.638Z,40.60
2018-05-29T20:07:47.981Z,40.78
2018-05-29T20:10:14.391Z,41.14
2018-05-29T20:12:40.881Z,41.40
2018-05-29T20:15:07.173Z,41.70
2018-05-29T20:17:33.426Z,41.92
2018-05-29T20:19:59.677Z,42.30
2018-05-29T20:22:26.310Z,42.61
2018-05-29T20:24:52.780Z,43.07
2018-05-29T20:27:19.135Z,43.50
2018-05-29T20:29:45.550Z,43.92
2018-05-29T20:32:11.839Z,44.06
2018-05-29T20:34:38.215Z,44.38
2018-05-29T20:37:04.621Z,44.56
2018-05-29T20:39:30.952Z,44.84
2018-05-29T20:41:57.252Z,44.79
2018-05-29T20:44:23.586Z,44.72
2018-05-29T20:46:50.018Z,45.02
2018-05-29T20:49:16.283Z,45.17
2018-05-29T20:51:42.709Z,45.29
2018-05-29T20:54:09.222Z,45.34
2018-05-29T20:56:35.612Z,44.76
2018-05-29T20:59:01.941Z,44.26
2018-05-29T21:01:28.216Z,43.84
2018-05-29T21:03:54.446Z,43.89
2018-05-29T21:06:21.090Z,43.69
2018-05-29T21:08:47.497Z,43.66
2018-05-29T21:11:13.779Z,43.31
2018-05-29T21:13:40.267Z,42.65
2018-05-29T21:16:06.586Z,42.26
2018-05-29T21:18:33.084Z,42.44
2018-05-29T21:21:00.373Z,41.99
2018-05-29T21:23:26.634Z,41.69
2018-05-29T21:25:53.068Z,41.56
2018-05-29T21:28:19.379Z,41.09
2018-05-29T21:30:45.955Z,40.96
2018-05-29T21:33:12.233Z,40.75
2018-05-29T21:35:38.821Z,40.82
2018-05-29T21:38:05.351Z,40.88
2018-05-29T21:40:31.928Z,40.69
2018-05-29T21:42:58.516Z,40.65
2018-05-29T21:45:24.755Z,40.69
2018-05-29T21:47:51.031Z,40.72
2018-05-29T21:50:17.592Z,40.40
2018-05-29T21:52:44.144Z,40.58
2018-05-29T21:55:11.089Z,40.23
2018-05-29T21:57:37.359Z,40.29
2018-05-29T22:00:03.747Z,40.52
2018-05-29T22:02:30.191Z,40.73
2018-05-29T22:04:56.555Z,41.07
2018-05-29T22:07:22.919Z,41.05
2018-05-29T22:09:49.464Z,41.11
2018-05-29T22:12:16.158Z,41.34
2018-05-29T22:14:42.722Z,41.60
2018-05-29T22:17:09.023Z,41.09
2018-05-29T22:19:35.278Z,41.30
2018-05-29T22:22:01.725Z,41.43
2018-05-29T22:24:28.107Z,41.68
2018-05-29T22:26:54.659Z,41.71
2018-05-29T22:29:20.935Z,41.59
2018-05-29T22:31:47.199Z,41.49
2018-05-29T22:34:13.754Z,41.33
2018-05-29T22:36:40.131Z,41.50
2018-05-29T22:39:06.591Z,41.80
2018-05-29T22:41:33.035Z,41.68
2018-05-29T22:43:59.423Z,41.75
2018-05-29T22:46:25.888Z,41.85
2018-05-29T22:48:52.258Z,42.15
2018-05-29T22:51:18.519Z,42.28
2018-05-29T22:53:44.814Z,42.43
2018-05-29T22:56:11.329Z,42.80
2018-05-29T22:58:37.639Z,42.79
2018-05-29T23:01:04.193Z,42.82
2018-05-29T23:03:30.694Z,42.69
2018-05-29T23:05:57.000Z,42.77
2018-05-29T23:08:23.623Z,43.18
2018-05-29T23:10:49.917Z,43.25
2018-05-29T23:13:16.263Z,43.30
2018-05-29T23:15:42.860Z,43.37
2018-05-29T23:18:09.491Z,43.20
2018-05-29T23:20:35.826Z,43.13
2018-05-29T23:23:02.042Z,43.37
2018-05-29T23:25:28.481Z,43.39
2018-05-29T23:27:54.746Z,43.70
2018-05-29T23:30:20.994Z,43.54
2018-05-29T23:32:47.234Z,43.78
2018-05-29T23:35:13.521Z,43.82
2018-05-29T23:37:39.751Z,43.95
2018-05-29T23:40:05.983Z,44.48
2018-05-29T23:42:32.247Z,44.69
2018-05-29T23:44:58.727Z,44.78
2018-05-29T23:47:24.957Z,45.16
2018-05-29T23:49:51.237Z,44.96
2018-05-29T23:52:17.499Z,44.53
2018-05-29T23:54:43.747Z,44.34
2018-05-29T23:57:10.019Z,44.99
2018-05-29T23:59:36.255Z,45.64
